Time;durP1;ratioP1;P1;durP2;ratioP2;P2;SDS_P1;SDS_P2;PMS_P1;PMS_P2;Temp;Humidity;BMP_temperature;BMP_pressure;BME280_temperature;BME280_humidity;BME280_pressure;Samples;Min_cycle;Max_cycle;Signal;HPM_P1;HPM_P2
2023/05/12 00:01:43;;;;;;;19.65;12.63;;;;;;;20.11;53.58;101828.13;5022899;28;20128;-36
2023/05/12 00:04:10;;;;;;;19.05;12.27;;;;;;;20.11;53.50;101827.28;5021088;28;20049;-36
2023/05/12 00:06:37;;;;;;;19.10;13.02;;;;;;;20.10;53.94;101834.53;5025243;28;20045;-35
2023/05/12 00:09:05;;;;;;;17.98;11.52;;;;;;;20.09;53.82;101824.72;5022101;28;20051;-37
2023/05/12 00:11:31;;;;;;;16.90;11.70;;;;;;;20.09;53.35;101830.09;5021698;28;20049;-36
2023/05/12 00:13:58;;;;;;;18.73;11.80;;;;;;;20.09;54.17;101829.25;5022536;28;20068;-36
2023/05/12 00:16:24;;;;;;;17.60;12.20;;;;;;;20.07;54.01;101824.03;5020661;28;20353;-36
2023/05/12 00:18:51;;;;;;;17.75;11.70;;;;;;;20.08;53.46;101819.50;5022861;28;20057;-36
2023/05/12 00:21:18;;;;;;;17.40;11.55;;;;;;;20.06;54.12;101825.03;5023467;28;20132;-36
2023/05/12 00:23:44;;;;;;;18.25;12.90;;;;;;;20.05;54.26;101820.63;5019407;28;20136;-37
2023/05/12 00:26:11;;;;;;;18.15;12.02;;;;;;;20.05;54.03;101823.31;5021430;28;20051;-35
2023/05/12 00:28:38;;;;;;;16.95;10.85;;;;;;;20.05;53.50;101826.00;5021299;28;20141;-36
2023/05/12 00:31:04;;;;;;;18.23;11.60;;;;;;;20.04;53.88;101824.31;5021910;28;20049;-35
2023/05/12 00:33:31;;;;;;;17.75;11.82;;;;;;;20.04;53.94;101827.00;5020682;28;20104;-35
2023/05/12 00:36:00;;;;;;;18.00;12.02;;;;;;;20.03;53.35;101814.53;5023289;28;20054;-35
2023/05/12 00:38:26;;;;;;;17.00;11.18;;;;;;;20.03;54.09;101814.53;5021336;28;20437;-35
2023/05/12 00:40:53;;;;;;;18.15;11.23;;;;;;;20.03;54.25;101825.31;5024776;28;20151;-35
2023/05/12 00:43:19;;;;;;;16.52;11.05;;;;;;;20.01;53.98;101821.06;5022797;28;20096;-36
2023/05/12 00:45:47;;;;;;;18.13;11.35;;;;;;;20.00;53.55;101809.44;5021266;28;20061;-35
2023/05/12 00:48:13;;;;;;;18.08;11.52;;;;;;;20.01;54.05;101818.38;5020275;28;20047;-36
2023/05/12 00:50:40;;;;;;;17.13;11.07;;;;;;;20.00;54.08;101809.44;5022648;28;20401;-37
2023/05/12 00:53:06;;;;;;;15.48;10.77;;;;;;;19.99;54.03;101815.81;5021270;28;20053;-36
2023/05/12 00:55:33;;;;;;;15.13;10.32;;;;;;;20.00;53.64;101808.59;5022439;28;20045;-36
2023/05/12 00:57:59;;;;;;;16.33;11.23;;;;;;;19.99;53.79;101817.66;5025243;28;20045;-35
2023/05/12 01:00:26;;;;;;;18.17;10.90;;;;;;;19.99;54.29;101809.59;5022700;28;20045;-36
2023/05/12 01:02:56;;;;;;;18.23;11.95;;;;;;;19.97;53.67;101805.19;5021617;28;20337;-35
2023/05/12 01:05:30;;;;;;;15.43;10.45;;;;;;;19.98;54.18;101811.44;5020366;28;20194;-35
2023/05/12 01:07:59;;;;;;;13.93;9.60;;;;;;;19.96;54.25;101806.19;5021978;28;20060;-36
2023/05/12 01:10:26;;;;;;;14.20;9.90;;;;;;;19.96;54.14;101802.66;5024522;28;20353;-35
2023/05/12 01:12:53;;;;;;;14.57;10.13;;;;;;;19.96;53.61;101797.25;5018635;28;20373;-35
2023/05/12 01:15:19;;;;;;;15.02;10.15;;;;;;;19.95;53.88;101796.41;5023004;28;20204;-35
2023/05/12 01:18:00;;;;;;;16.52;10.68;;;;;;;19.94;53.46;101793.88;5021465;28;20599;-35
2023/05/12 01:20:27;;;;;;;14.52;10.00;;;;;;;19.94;53.86;101793.88;5021716;28;20057;-35
2023/05/12 01:22:54;;;;;;;13.65;9.20;;;;;;;19.93;53.72;101792.16;5021066;28;20538;-36
2023/05/12 01:25:27;;;;;;;15.60;9.75;;;;;;;19.92;54.41;101795.84;5020879;28;20072;-35
2023/05/12 01:27:54;;;;;;;15.00;9.60;;;;;;;19.92;54.18;101793.16;5018257;28;20122;-35
2023/05/12 01:30:23;;;;;;;14.85;9.90;;;;;;;19.90;54.43;101792.44;5021365;28;20075;-36
2023/05/12 01:32:51;;;;;;;14.82;9.68;;;;;;;19.89;53.70;101791.59;5021404;28;20061;-35
2023/05/12 01:35:18;;;;;;;13.60;9.10;;;;;;;19.89;54.22;101801.50;5020660;28;20053;-35
2023/05/12 01:37:45;;;;;;;15.18;9.68;;;;;;;19.87;53.76;101790.06;5021900;28;20041;-35
2023/05/12 01:40:11;;;;;;;13.30;8.70;;;;;;;19.87;54.25;101785.53;5023771;28;20067;-36
2023/05/12 01:42:40;;;;;;;13.45;9.43;;;;;;;19.87;54.50;101782.00;5019801;28;20053;-35
2023/05/12 01:45:08;;;;;;;11.65;8.05;;;;;;;19.85;54.22;101782.09;5022484;28;20132;-35
2023/05/12 01:47:34;;;;;;;15.90;8.48;;;;;;;19.86;53.92;101783.84;5022063;28;20505;-36
2023/05/12 01:50:02;;;;;;;12.98;8.68;;;;;;;19.85;53.84;101779.41;5020483;28;20053;-36
2023/05/12 01:52:28;;;;;;;12.80;8.63;;;;;;;19.86;53.94;101780.25;5021844;28;20091;-35
2023/05/12 01:54:55;;;;;;;14.23;8.88;;;;;;;19.84;54.09;101782.28;5023619;28;20056;-35
2023/05/12 01:57:21;;;;;;;13.18;8.63;;;;;;;19.83;54.41;101780.56;5026368;28;20053;-36
2023/05/12 01:59:48;;;;;;;13.25;8.95;;;;;;;19.84;54.20;101793.88;5023513;28;20140;-36
2023/05/12 02:02:15;;;;;;;12.90;8.82;;;;;;;19.83;54.32;101784.09;5026383;28;20054;-35
2023/05/12 02:04:42;;;;;;;11.75;7.90;;;;;;;19.83;54.07;101785.97;5025963;28;20053;-35
2023/05/12 02:07:09;;;;;;;12.13;8.10;;;;;;;19.83;53.84;101780.56;5024678;28;20056;-35
2023/05/12 02:09:35;;;;;;;12.13;8.02;;;;;;;19.82;53.86;101785.09;5025064;28;20092;-35
2023/05/12 02:12:03;;;;;;;12.35;7.85;;;;;;;19.81;54.39;101779.84;5025568;28;20061;-35
2023/05/12 02:14:29;;;;;;;12.43;8.43;;;;;;;19.82;54.37;101786.94;5023357;28;20126;-36
2023/05/12 02:16:56;;;;;;;12.70;8.15;;;;;;;19.81;54.56;101777.16;5025741;28;20316;-35
2023/05/12 02:19:22;;;;;;;10.38;7.40;;;;;;;19.80;53.78;101780.84;5024111;28;20609;-36
2023/05/12 02:21:49;;;;;;;11.82;8.07;;;;;;;19.80;54.47;101772.78;5028304;28;20064;-35
2023/05/12 02:24:15;;;;;;;11.63;7.47;;;;;;;19.79;53.94;101773.78;5024509;28;20061;-35
2023/05/12 02:26:42;;;;;;;10.75;6.85;;;;;;;19.80;53.97;101783.53;5024241;28;20053;-36
2023/05/12 02:29:10;;;;;;;10.60;7.25;;;;;;;19.78;53.94;101781.00;5022396;28;20520;-36
2023/05/12 02:31:37;;;;;;;12.05;7.90;;;;;;;19.79;53.72;101781.84;5023780;28;20472;-35
2023/05/12 02:34:03;;;;;;;10.43;7.03;;;;;;;19.78;53.93;101772.06;5028333;28;20438;-35
2023/05/12 02:36:32;;;;;;;11.00;7.82;;;;;;;19.77;54.36;101776.59;5025021;28;20069;-35
2023/05/12 02:38:58;;;;;;;11.35;7.57;;;;;;;19.76;53.91;101768.69;5024270;28;20046;-36
2023/05/12 02:41:25;;;;;;;11.52;6.88;;;;;;;19.77;54.01;101770.38;5027512;28;20434;-35
2023/05/12 02:43:52;;;;;;;10.88;7.30;;;;;;;19.75;54.27;101778.59;5037762;28;20068;-35
2023/05/12 02:46:19;;;;;;;10.60;7.35;;;;;;;19.76;53.86;101782.13;5023165;28;20049;-35
2023/05/12 02:48:46;;;;;;;9.93;6.63;;;;;;;19.76;54.53;101784.81;5022767;28;20045;-35
2023/05/12 02:51:12;;;;;;;11.75;7.65;;;;;;;19.75;54.35;101775.06;5027869;28;20057;-35
2023/05/12 02:53:39;;;;;;;11.93;7.47;;;;;;;19.75;54.00;101767.00;5026283;28;20098;-35
2023/05/12 02:56:06;;;;;;;10.23;7.15;;;;;;;19.74;54.21;101766.16;5028385;28;20057;-35
2023/05/12 02:58:33;;;;;;;9.10;6.53;;;;;;;19.73;53.87;101767.13;5027722;28;20156;-35
2023/05/12 03:01:00;;;;;;;10.05;6.68;;;;;;;19.73;54.62;101767.97;5029426;28;20055;-35
2023/05/12 03:03:35;;;;;;;9.70;6.60;;;;;;;19.73;54.51;101764.41;5024135;28;20052;-36
2023/05/12 03:06:03;;;;;;;8.65;6.13;;;;;;;19.73;54.00;101761.72;5025321;28;20073;-35
2023/05/12 03:08:30;;;;;;;9.13;6.53;;;;;;;19.72;53.93;101766.25;5023578;28;20473;-36
2023/05/12 03:10:56;;;;;;;9.48;6.88;;;;;;;19.72;54.52;101758.19;5025454;28;20045;-36
2023/05/12 03:13:23;;;;;;;10.32;6.90;;;;;;;19.71;54.25;101761.88;5022708;28;20295;-36
2023/05/12 03:15:49;;;;;;;9.63;6.30;;;;;;;19.72;54.15;101763.56;5027052;28;20540;-36
2023/05/12 03:18:16;;;;;;;9.63;6.30;;;;;;;19.71;54.00;101752.97;5023600;28;20071;-36
2023/05/12 03:20:42;;;;;;;9.27;6.68;;;;;;;19.71;54.66;101744.91;5026541;28;20132;-35
2023/05/12 03:23:09;;;;;;;9.43;6.32;;;;;;;19.69;54.40;101750.41;5020370;28;20049;-36
2023/05/12 03:25:35;;;;;;;8.90;6.07;;;;;;;19.70;54.02;101749.44;5025121;28;20046;-35
2023/05/12 03:28:02;;;;;;;9.45;6.22;;;;;;;19.70;54.21;101740.53;5024740;28;20468;-36
2023/05/12 03:30:29;;;;;;;9.00;6.00;;;;;;;19.70;53.84;101748.59;5021804;28;20326;-36
2023/05/12 03:32:55;;;;;;;8.93;6.07;;;;;;;19.68;54.38;101746.03;5022055;28;20053;-35
2023/05/12 03:35:22;;;;;;;9.52;6.03;;;;;;;19.68;54.44;101740.66;5023242;28;20045;-36
2023/05/12 03:37:49;;;;;;;9.25;6.18;;;;;;;19.67;54.29;101744.34;5027543;28;20054;-36
2023/05/12 03:40:17;;;;;;;9.18;6.10;;;;;;;19.67;54.07;101741.66;5025752;28;20052;-35
2023/05/12 03:42:44;;;;;;;8.85;5.85;;;;;;;19.67;54.71;101741.66;5022084;28;20049;-35
2023/05/12 03:45:11;;;;;;;7.13;5.10;;;;;;;19.66;53.72;101734.56;5022514;28;20057;-36
2023/05/12 03:47:39;;;;;;;7.60;5.40;;;;;;;19.66;54.11;101737.28;5022823;28;20070;-35
2023/05/12 03:50:07;;;;;;;8.32;5.07;;;;;;;19.66;53.98;101731.88;5027315;28;20388;-36
2023/05/12 03:52:33;;;;;;;8.23;5.60;;;;;;;19.66;53.88;101737.28;5022477;28;20046;-36
2023/05/12 03:55:00;;;;;;;8.73;5.65;;;;;;;19.65;54.14;101735.53;5024701;28;20364;-36
2023/05/12 03:57:26;;;;;;;7.43;5.50;;;;;;;19.64;54.54;101744.63;5023230;28;20387;-36
2023/05/12 03:59:53;;;;;;;8.52;5.32;;;;;;;19.64;53.93;101735.69;5020290;28;20346;-35
2023/05/12 04:02:20;;;;;;;6.53;4.68;;;;;;;19.64;54.29;101741.06;5024074;28;20378;-36
2023/05/12 04:04:46;;;;;;;7.65;5.13;;;;;;;19.63;54.03;101742.94;5025181;28;20056;-35
2023/05/12 04:07:13;;;;;;;7.93;5.38;;;;;;;19.62;54.04;101741.22;5020748;28;20128;-35
2023/05/12 04:09:40;;;;;;;9.43;5.53;;;;;;;19.62;54.88;101738.53;5023588;28;20046;-35
2023/05/12 04:12:06;;;;;;;7.38;5.03;;;;;;;19.61;54.47;101736.81;5021869;28;20050;-35
2023/05/12 04:14:33;;;;;;;7.57;4.75;;;;;;;19.61;54.61;101735.94;5025302;28;20088;-35
2023/05/12 04:17:08;;;;;;;10.85;5.80;;;;;;;19.60;54.56;101739.63;5017177;28;20132;-36
2023/05/12 04:19:35;;;;;;;7.97;5.20;;;;;;;19.59;54.14;101738.78;5020389;28;20050;-35
2023/05/12 04:22:01;;;;;;;8.32;4.90;;;;;;;19.59;54.64;101736.09;5023901;28;20062;-36
2023/05/12 04:24:28;;;;;;;9.43;5.72;;;;;;;19.59;54.62;101729.88;5025554;28;20345;-35
2023/05/12 04:26:56;;;;;;;8.13;5.32;;;;;;;19.58;54.60;101722.78;5042981;28;20053;-36
2023/05/12 04:29:23;;;;;;;8.23;5.05;;;;;;;19.57;54.68;101727.31;5027831;28;20048;-35
2023/05/12 04:31:49;;;;;;;6.82;4.90;;;;;;;19.57;54.69;101724.63;5025898;28;20058;-35
2023/05/12 04:34:16;;;;;;;8.40;4.47;;;;;;;19.59;54.09;101724.50;5022026;28;20058;-35
2023/05/12 04:36:42;;;;;;;7.03;4.45;;;;;;;19.57;54.43;101723.78;5024097;28;20080;-35
2023/05/12 04:39:09;;;;;;;9.13;5.38;;;;;;;19.57;54.41;101737.22;5022198;28;20057;-35
2023/05/12 04:41:35;;;;;;;7.82;4.90;;;;;;;19.57;54.52;101743.44;5025324;28;20052;-35
2023/05/12 04:44:02;;;;;;;7.30;5.00;;;;;;;19.57;54.37;101751.50;5025511;28;20062;-35
2023/05/12 04:46:29;;;;;;;6.63;4.60;;;;;;;19.57;54.07;101751.50;5022412;28;20056;-35
2023/05/12 04:48:55;;;;;;;6.70;4.80;;;;;;;19.56;54.18;101754.34;5022605;28;20060;-35
2023/05/12 04:51:22;;;;;;;6.78;4.75;;;;;;;19.58;54.57;101755.91;5019233;28;20133;-35
2023/05/12 04:53:48;;;;;;;7.57;5.00;;;;;;;19.57;54.66;101764.97;5025150;28;20165;-35
2023/05/12 04:56:15;;;;;;;6.60;4.55;;;;;;;19.57;54.50;101774.88;5024172;28;20057;-36
2023/05/12 04:58:42;;;;;;;6.05;4.50;;;;;;;19.56;54.70;101779.41;5021384;28;20059;-36
2023/05/12 05:01:11;;;;;;;6.82;4.80;;;;;;;19.57;53.97;101774.88;5020085;28;20045;-36
2023/05/12 05:03:38;;;;;;;8.98;5.07;;;;;;;19.56;54.68;101792.84;5020440;28;20041;-36
2023/05/12 05:06:05;;;;;;;7.28;4.57;;;;;;;19.56;54.32;101783.94;5025640;28;20053;-35
2023/05/12 05:08:32;;;;;;;6.93;4.68;;;;;;;19.55;54.25;101787.63;5022719;28;20433;-35
2023/05/12 05:10:58;;;;;;;6.05;4.47;;;;;;;19.55;54.10;101791.16;5023158;28;20046;-35
2023/05/12 05:13:25;;;;;;;6.25;4.35;;;;;;;19.55;54.69;101793.84;5020325;28;20053;-35
2023/05/12 05:15:52;;;;;;;5.93;4.10;;;;;;;19.55;54.11;101788.47;5021265;28;20054;-35
2023/05/12 05:18:19;;;;;;;5.97;4.20;;;;;;;19.54;54.56;101792.16;5022700;28;20041;-35
2023/05/12 05:20:49;;;;;;;6.63;4.60;;;;;;;19.55;54.76;101801.06;5028508;28;20443;-35
2023/05/12 05:23:24;;;;;;;6.85;4.57;;;;;;;19.55;54.24;101801.91;5023795;28;20077;-36
2023/05/12 05:25:51;;;;;;;7.63;4.80;;;;;;;19.55;54.06;101801.06;5021769;28;20045;-36
2023/05/12 05:28:18;;;;;;;7.03;4.68;;;;;;;19.55;54.65;101801.06;5020694;28;20464;-35
2023/05/12 05:30:44;;;;;;;9.75;5.00;;;;;;;19.55;54.46;101806.44;5026752;28;20080;-35
2023/05/12 05:33:11;;;;;;;7.82;4.65;;;;;;;19.55;53.97;101811.81;5024219;28;20093;-35
2023/05/12 05:35:38;;;;;;;7.05;4.85;;;;;;;19.53;54.68;101809.25;5024987;28;20125;-35
2023/05/12 05:38:05;;;;;;;5.95;4.35;;;;;;;19.54;54.13;101818.16;5028199;28;20096;-36
2023/05/12 05:40:32;;;;;;;6.25;4.35;;;;;;;19.54;54.53;101819.03;5027392;28;20448;-35
2023/05/12 05:43:10;;;;;;;7.18;4.68;;;;;;;19.54;54.69;101818.16;5024879;28;20083;-35
2023/05/12 05:45:37;;;;;;;6.68;4.43;;;;;;;19.54;54.06;101808.28;5029375;28;20049;-35
2023/05/12 05:48:04;;;;;;;7.03;4.72;;;;;;;19.53;54.09;101809.25;5022347;28;20064;-35
2023/05/12 05:50:30;;;;;;;7.13;5.22;;;;;;;19.54;54.84;101824.44;5023673;28;20116;-36
2023/05/12 05:52:57;;;;;;;6.22;4.35;;;;;;;19.54;54.18;101824.44;5027167;28;20136;-35
2023/05/12 05:55:23;;;;;;;7.80;4.90;;;;;;;19.54;54.29;101824.44;5025112;28;20083;-36
2023/05/12 05:57:50;;;;;;;7.63;4.80;;;;;;;19.55;54.47;101823.44;5028070;28;20238;-35
2023/05/12 06:00:17;;;;;;;7.82;5.38;;;;;;;19.56;54.64;101826.97;5026510;28;20067;-35
2023/05/12 06:02:43;;;;;;;7.65;5.00;;;;;;;19.56;54.15;101827.81;5026687;28;20057;-36
2023/05/12 06:05:11;;;;;;;6.65;4.75;;;;;;;19.57;54.75;101812.50;5027611;28;20050;-36
2023/05/12 06:07:40;;;;;;;7.35;4.95;;;;;;;19.57;54.47;101813.38;5027875;28;20051;-35
2023/05/12 06:10:07;;;;;;;6.40;4.70;;;;;;;19.58;54.40;101820.47;5027971;28;20128;-35
2023/05/12 06:12:33;;;;;;;7.60;4.55;;;;;;;19.59;54.42;101824.84;5027791;28;20440;-37
2023/05/12 06:15:00;;;;;;;7.10;4.60;;;;;;;19.60;54.32;101826.53;5024372;28;20053;-35
2023/05/12 06:17:26;;;;;;;6.57;4.28;;;;;;;19.59;53.77;101818.63;5024493;28;20046;-35
2023/05/12 06:19:54;;;;;;;6.47;4.38;;;;;;;19.61;54.32;101825.56;5021967;28;20077;-36
2023/05/12 06:22:20;;;;;;;7.20;4.55;;;;;;;19.61;54.40;101830.94;5026185;28;20056;-36
2023/05/12 06:24:47;;;;;;;8.10;4.65;;;;;;;19.63;54.37;101838.91;5023952;28;20050;-35
2023/05/12 06:27:14;;;;;;;6.35;4.40;;;;;;;19.63;54.26;101828.97;5028386;28;20053;-36
2023/05/12 06:29:40;;;;;;;5.28;3.85;;;;;;;19.64;54.26;101837.91;5027462;28;20461;-36
2023/05/12 06:32:07;;;;;;;6.45;4.40;;;;;;;19.65;54.40;101834.22;5022297;28;20056;-36
2023/05/12 06:34:35;;;;;;;7.63;5.30;;;;;;;19.65;53.97;101840.44;5022027;28;20468;-35
2023/05/12 06:37:02;;;;;;;5.85;4.25;;;;;;;19.66;53.64;101839.47;5026283;28;20071;-35
2023/05/12 06:39:28;;;;;;;6.07;4.80;;;;;;;19.67;53.61;101846.53;5026604;28;20179;-36
2023/05/12 06:41:55;;;;;;;5.55;4.07;;;;;;;19.67;53.88;101841.16;5021142;28;20083;-36
2023/05/12 06:44:22;;;;;;;6.63;4.63;;;;;;;19.68;53.72;101845.53;5021688;28;20063;-36
2023/05/12 06:46:48;;;;;;;6.95;4.70;;;;;;;19.69;53.64;101835.63;5023648;28;20056;-36
2023/05/12 06:49:15;;;;;;;5.60;3.92;;;;;;;19.69;54.17;101839.16;5029573;28;20054;-35
2023/05/12 06:51:42;;;;;;;6.50;4.53;;;;;;;19.70;54.12;101851.66;5024418;28;20136;-36
2023/05/12 06:54:08;;;;;;;6.53;4.55;;;;;;;19.71;53.75;101847.13;5024815;28;20046;-35
2023/05/12 06:56:35;;;;;;;6.15;4.40;;;;;;;19.72;53.64;101849.66;5025570;28;20053;-35
2023/05/12 06:59:03;;;;;;;7.03;4.95;;;;;;;19.72;53.88;101854.19;5024130;28;20045;-35
2023/05/12 07:01:30;;;;;;;7.57;4.85;;;;;;;19.73;53.81;101859.41;5023293;28;20433;-35
2023/05/12 07:03:58;;;;;;;6.20;4.15;;;;;;;19.75;53.98;101858.44;5019094;28;20049;-35
2023/05/12 07:06:28;;;;;;;7.28;4.75;;;;;;;19.75;53.72;101861.13;5021845;28;20057;-37
2023/05/12 07:08:55;;;;;;;6.80;4.28;;;;;;;19.76;53.88;101863.69;5017086;28;20145;-35
2023/05/12 07:11:22;;;;;;;7.53;4.70;;;;;;;19.78;53.42;101866.22;5025636;28;20088;-35
2023/05/12 07:13:49;;;;;;;8.23;4.45;;;;;;;19.77;53.62;101862.69;5027308;28;20072;-35
2023/05/12 07:16:17;;;;;;;7.15;5.30;;;;;;;19.79;53.51;101866.09;5023732;28;20233;-36
2023/05/12 07:18:44;;;;;;;8.43;4.70;;;;;;;19.81;53.91;101865.94;5025136;28;20080;-36
2023/05/12 07:21:12;;;;;;;8.73;5.55;;;;;;;19.82;53.56;101873.00;5026995;28;20422;-35
2023/05/12 07:23:39;;;;;;;7.38;4.55;;;;;;;19.83;54.02;101875.59;5025308;28;20051;-35
2023/05/12 07:26:06;;;;;;;7.60;4.95;;;;;;;19.85;53.66;101870.91;5028338;28;20132;-36
2023/05/12 07:28:37;;;;;;;11.00;5.88;;;;;;;19.84;53.84;101871.91;5027457;28;20176;-36
2023/05/12 07:31:05;;;;;;;8.57;5.30;;;;;;;19.86;53.68;101872.63;5025357;28;20408;-36
2023/05/12 07:33:34;;;;;;;9.38;5.70;;;;;;;19.87;53.50;101879.69;5024517;28;20369;-35
2023/05/12 07:36:03;;;;;;;10.38;5.72;;;;;;;19.89;53.90;101884.91;5024503;28;20440;-36
2023/05/12 07:38:30;;;;;;;8.32;5.00;;;;;;;19.90;53.77;101883.91;5023445;28;20099;-36
2023/05/12 07:40:58;;;;;;;7.82;5.50;;;;;;;19.90;53.73;101889.31;5025668;28;20136;-35
2023/05/12 07:43:25;;;;;;;9.50;4.78;;;;;;;19.90;53.86;101886.63;5025007;28;20061;-39
2023/05/12 07:45:53;;;;;;;10.60;5.03;;;;;;;19.92;54.08;101887.34;5023382;28;20342;-36
2023/05/12 07:48:20;;;;;;;7.63;4.47;;;;;;;19.92;53.68;101888.19;5022838;28;20076;-36
2023/05/12 07:50:46;;;;;;;6.75;4.63;;;;;;;19.93;53.68;101891.72;5023401;28;20056;-36
2023/05/12 07:53:13;;;;;;;7.07;4.75;;;;;;;19.95;53.05;101890.59;5022105;28;20049;-36
2023/05/12 07:55:40;;;;;;;8.52;4.72;;;;;;;19.97;53.45;101893.13;5022095;28;20080;-36
2023/05/12 07:58:06;;;;;;;7.65;5.22;;;;;;;19.99;53.37;101898.41;5022687;28;20603;-35
2023/05/12 08:00:33;;;;;;;7.07;5.15;;;;;;;20.00;53.84;101889.31;5024251;28;20429;-36
2023/05/12 08:02:59;;;;;;;10.95;5.78;;;;;;;20.01;53.10;101896.41;5021650;28;20060;-36
2023/05/12 08:05:26;;;;;;;11.88;5.20;;;;;;;20.04;53.52;101888.06;5020005;28;20132;-35
2023/05/12 08:07:53;;;;;;;8.18;4.93;;;;;;;20.04;53.57;101891.59;5019695;28;20365;-35
2023/05/12 08:10:20;;;;;;;8.85;5.00;;;;;;;20.06;53.40;101886.06;5021413;28;20471;-36
2023/05/12 08:12:46;;;;;;;8.13;5.07;;;;;;;20.08;53.10;101892.16;5021493;28;20301;-35
2023/05/12 08:15:13;;;;;;;9.27;5.43;;;;;;;20.09;53.48;101893.84;5024974;28;20057;-36
2023/05/12 08:17:40;;;;;;;10.65;5.65;;;;;;;20.11;52.96;101900.81;5024468;28;20464;-35
2023/05/12 08:20:07;;;;;;;8.75;5.25;;;;;;;20.14;52.87;101902.34;5021774;28;20046;-35
2023/05/12 08:22:34;;;;;;;12.93;5.70;;;;;;;20.15;53.06;101899.53;5021476;28;20049;-35
2023/05/12 08:25:01;;;;;;;9.05;5.40;;;;;;;20.18;53.03;101911.84;5021610;28;20057;-36
2023/05/12 08:27:28;;;;;;;8.35;5.35;;;;;;;20.20;53.36;101912.56;5022298;28;20058;-36
2023/05/12 08:29:54;;;;;;;10.55;5.63;;;;;;;20.21;53.16;101906.19;5023271;28;21235;-36
2023/05/12 08:32:21;;;;;;;11.15;5.53;;;;;;;20.24;52.68;101915.81;5023736;28;20042;-35
2023/05/12 08:34:48;;;;;;;10.65;5.78;;;;;;;20.25;53.26;101912.13;5020637;28;20062;-36
2023/05/12 08:37:14;;;;;;;10.27;5.72;;;;;;;20.26;53.23;101917.38;5023257;28;20049;-35
2023/05/12 08:39:41;;;;;;;11.52;5.63;;;;;;;20.27;53.23;101916.38;5024571;28;20655;-35
2023/05/12 08:42:42;;;;;;;9.85;5.22;;;;;;;20.28;53.29;101910.00;5023742;28;20058;-38
2023/05/12 08:45:10;;;;;;;10.93;5.80;;;;;;;20.30;52.87;101921.50;5026191;28;20064;-36
2023/05/12 08:47:37;;;;;;;11.45;6.13;;;;;;;20.32;53.01;101927.56;5020191;28;20046;-36
2023/05/12 08:50:04;;;;;;;9.95;5.45;;;;;;;20.33;52.55;101920.34;5025611;28;20081;-35
2023/05/12 08:52:33;;;;;;;10.52;6.32;;;;;;;20.33;52.81;101921.19;5026809;28;20041;-36
2023/05/12 08:55:01;;;;;;;9.38;4.93;;;;;;;20.34;52.82;101925.59;5027289;28;20050;-35
2023/05/12 08:57:29;;;;;;;11.50;5.53;;;;;;;20.35;52.97;101923.75;5025861;28;20061;-38
2023/05/12 09:00:00;;;;;;;13.95;5.55;;;;;;;20.37;52.34;101927.16;5023764;28;20101;-35
2023/05/12 09:02:29;;;;;;;9.73;5.72;;;;;;;20.38;52.40;101934.22;5023972;28;20048;-35
2023/05/12 09:05:10;;;;;;;10.57;5.75;;;;;;;20.39;52.38;101926.03;5018122;28;20049;-36
2023/05/12 09:07:42;;;;;;;8.88;5.32;;;;;;;20.39;52.83;101934.09;5025741;28;20052;-36
2023/05/12 09:10:16;;;;;;;10.68;6.05;;;;;;;20.41;52.34;101925.88;5026094;28;20053;-35
2023/05/12 09:13:27;;;;;;;10.82;5.72;;;;;;;20.42;52.91;101925.75;5026448;28;20054;-35
2023/05/12 09:16:00;;;;;;;11.98;6.35;;;;;;;20.45;52.60;101938.06;5023099;28;20050;-35
2023/05/12 09:19:02;;;;;;;13.77;5.78;;;;;;;20.44;52.46;101925.59;5027913;28;20049;-35
2023/05/12 09:21:33;;;;;;;10.00;5.88;;;;;;;20.48;52.56;101935.06;4985898;28;20394;-36
2023/05/12 09:24:04;;;;;;;9.02;5.68;;;;;;;20.49;52.52;101936.81;5019168;28;20055;-35
2023/05/12 09:26:44;;;;;;;11.38;5.72;;;;;;;20.51;52.29;101939.38;5025866;28;20119;-36
2023/05/12 09:29:11;;;;;;;8.73;5.32;;;;;;;20.54;52.79;101931.81;5024940;28;20151;-37
2023/05/12 09:31:54;;;;;;;9.52;5.10;;;;;;;20.58;52.70;101935.97;5025209;28;20053;-35
2023/05/12 09:34:42;;;;;;;12.02;5.82;;;;;;;20.61;52.58;101942.88;5027122;28;20392;-35
2023/05/12 09:37:08;;;;;;;10.02;5.85;;;;;;;20.66;52.15;101941.47;5026867;28;20130;-35
2023/05/12 09:39:35;;;;;;;11.23;5.25;;;;;;;20.69;52.50;101933.09;5023739;28;20057;-36
2023/05/12 09:42:02;;;;;;;11.38;5.50;;;;;;;20.74;52.75;101929.09;5022636;28;20049;-36
2023/05/12 09:44:30;;;;;;;9.00;5.13;;;;;;;20.77;52.66;101940.44;5029800;28;20085;-36
2023/05/12 09:47:05;;;;;;;9.80;5.00;;;;;;;20.81;52.54;101938.31;5025013;28;20072;-36
2023/05/12 09:49:32;;;;;;;13.00;5.63;;;;;;;20.84;52.46;101940.72;5028401;28;20352;-36
2023/05/12 09:51:59;;;;;;;9.98;5.82;;;;;;;20.88;52.49;101944.81;5021124;28;20612;-34
2023/05/12 09:54:31;;;;;;;7.88;4.40;;;;;;;20.92;52.62;101943.53;5021054;28;20136;-34
2023/05/12 09:56:59;;;;;;;7.93;5.35;;;;;;;20.95;52.67;101944.09;5023951;28;20129;-35
2023/05/12 09:59:31;;;;;;;9.27;5.07;;;;;;;20.98;52.43;101951.03;5021454;28;20056;-34
2023/05/12 10:02:00;;;;;;;8.90;4.80;;;;;;;21.00;52.56;101948.22;5025376;28;20050;-35
2023/05/12 10:04:28;;;;;;;9.18;5.13;;;;;;;21.01;52.57;101942.66;5028197;28;20057;-36
2023/05/12 10:06:57;;;;;;;7.70;4.50;;;;;;;21.02;52.46;101946.19;5028922;28;20056;-34
2023/05/12 10:09:30;;;;;;;8.88;5.15;;;;;;;21.04;52.00;101957.69;5029047;28;20049;-35
2023/05/12 10:11:57;;;;;;;9.15;5.30;;;;;;;21.03;52.28;101956.00;5029858;28;20405;-35
2023/05/12 10:14:25;;;;;;;12.13;5.00;;;;;;;21.03;52.32;101958.69;5028005;28;20077;-35
2023/05/12 10:16:52;;;;;;;9.02;4.75;;;;;;;21.03;52.43;101961.41;5024806;28;20064;-35
2023/05/12 10:19:20;;;;;;;6.95;4.85;;;;;;;21.03;52.21;101961.41;5022419;28;20331;-35
2023/05/12 10:21:47;;;;;;;7.05;4.65;;;;;;;21.04;52.36;101955.00;5024565;28;20037;-34
2023/05/12 10:24:17;;;;;;;6.70;4.85;;;;;;;21.06;51.92;101953.00;5027783;28;20057;-35
2023/05/12 10:26:44;;;;;;;9.15;5.25;;;;;;;21.08;52.25;101954.56;5026991;28;20080;-35
2023/05/12 10:29:12;;;;;;;7.55;4.63;;;;;;;21.11;52.23;101948.03;5025324;28;20164;-34
2023/05/12 10:31:39;;;;;;;7.03;4.68;;;;;;;21.14;52.05;101951.25;5026734;28;20124;-35
2023/05/12 10:34:06;;;;;;;7.70;4.65;;;;;;;21.17;51.94;101950.97;5027250;28;20053;-37
2023/05/12 10:36:46;;;;;;;7.82;4.55;;;;;;;21.21;52.33;101959.63;5025525;28;20060;-34
2023/05/12 10:39:16;;;;;;;9.52;4.90;;;;;;;21.27;52.09;101960.91;5026004;28;20060;-34
2023/05/12 10:41:42;;;;;;;9.57;4.60;;;;;;;21.29;52.57;101951.63;5027523;28;20053;-35
2023/05/12 10:44:09;;;;;;;9.18;3.83;;;;;;;21.30;52.02;101953.31;5025015;28;20060;-36
2023/05/12 10:46:36;;;;;;;7.32;4.20;;;;;;;21.31;52.03;101957.75;5021956;28;20658;-35
2023/05/12 10:49:08;;;;;;;7.30;4.57;;;;;;;21.31;51.89;101957.75;5025140;28;20062;-34
2023/05/12 10:51:41;;;;;;;9.02;4.38;;;;;;;21.33;51.86;101963.88;5024316;28;20444;-37
2023/05/12 10:54:09;;;;;;;7.50;4.53;;;;;;;21.34;52.32;101960.16;5024939;28;20049;-37
2023/05/12 10:56:36;;;;;;;7.70;4.45;;;;;;;21.36;52.16;101958.19;5022237;28;20120;-36
2023/05/12 10:59:08;;;;;;;7.03;3.55;;;;;;;21.37;52.22;101959.88;5019930;28;20425;-35
2023/05/12 11:01:35;;;;;;;5.20;3.78;;;;;;;21.40;52.18;101959.59;5026848;28;20045;-34
2023/05/12 11:04:14;;;;;;;6.75;3.97;;;;;;;21.43;51.89;101955.75;5023856;28;20069;-34
2023/05/12 11:06:43;;;;;;;5.47;4.00;;;;;;;21.46;51.87;101950.03;5024969;28;20054;-34
2023/05/12 11:09:11;;;;;;;6.55;3.85;;;;;;;21.50;51.67;101956.81;5026621;28;20329;-34
2023/05/12 11:11:39;;;;;;;6.05;3.90;;;;;;;21.50;51.92;101958.69;5026195;28;20091;-34
2023/05/12 11:14:07;;;;;;;7.50;4.45;;;;;;;21.52;51.94;101954.84;5023310;28;20041;-34
2023/05/12 11:16:39;;;;;;;9.13;4.78;;;;;;;21.56;51.62;101956.25;5023474;28;20053;-34
2023/05/12 11:19:06;;;;;;;6.80;4.37;;;;;;;21.56;51.78;101956.25;5022650;28;20045;-34
2023/05/12 11:21:33;;;;;;;5.72;3.85;;;;;;;21.56;51.88;101958.94;5024346;28;20584;-34
2023/05/12 11:24:01;;;;;;;5.35;3.20;;;;;;;21.56;51.97;101958.94;5025987;28;20045;-34
2023/05/12 11:26:28;;;;;;;6.32;3.65;;;;;;;21.57;52.04;101951.69;5027052;28;20050;-34